RYR878Q LIPH-LMML
Flight info
| Callsign | RYR878Q |
|---|---|
| Flight time | 1h 32m |
| Altitude | 19000 |
| Route | INBUT N503 CHI/N0438F350 DCT DIPVO/N0436F370 DCT TIBER DCT TAGEL DCT MARON/N0340F190 L12 GZO |
| Aircraft | B738/M-SDE3FGIJ1LRWY/SB1 |
Departure
| Time | 2026-05-04 21:33 |
|---|---|
| Airport | Treviso Airport (LIPH) |
Arrival
| Time | 2026-05-04 23:06 |
|---|---|
| Airport | Malta International Airport (LMML) |
| Time | Latitude | Longitude | Altitude | Speed | Heading |
|---|---|---|---|---|---|
| 2026-05-04 21:10 | 45.65394 | 12.20485 | 61 ft | 0 kts | 339° |
| 2026-05-04 21:23 | 45.65393 | 12.20486 | 61 ft | 2 kts | 339° |
| 2026-05-04 21:23 | 45.65369 | 12.20498 | 52 ft | 4 kts | 345° |
| 2026-05-04 21:24 | 45.65344 | 12.20502 | 56 ft | 4 kts | 17° |
| 2026-05-04 21:24 | 45.65331 | 12.20489 | 53 ft | 0 kts | 69° |
| 2026-05-04 21:27 | 45.65331 | 12.20490 | 53 ft | 1 kts | 69° |
| 2026-05-04 21:27 | 45.65336 | 12.20509 | 58 ft | 4 kts | 69° |
| 2026-05-04 21:27 | 45.65350 | 12.20561 | 55 ft | 7 kts | 69° |
| 2026-05-04 21:28 | 45.65372 | 12.20645 | 59 ft | 11 kts | 69° |
| 2026-05-04 21:28 | 45.65371 | 12.20717 | 56 ft | 4 kts | 140° |
| 2026-05-04 21:28 | 45.65331 | 12.20746 | 55 ft | 9 kts | 158° |
| 2026-05-04 21:28 | 45.65252 | 12.20785 | 54 ft | 14 kts | 171° |
| 2026-05-04 21:29 | 45.65192 | 12.20694 | 61 ft | 13 kts | 252° |
| 2026-05-04 21:29 | 45.65161 | 12.20571 | 60 ft | 13 kts | 250° |
| 2026-05-04 21:29 | 45.65128 | 12.20444 | 58 ft | 14 kts | 249° |
| 2026-05-04 21:29 | 45.65090 | 12.20305 | 61 ft | 16 kts | 249° |
| 2026-05-04 21:30 | 45.65047 | 12.20145 | 61 ft | 20 kts | 249° |
| 2026-05-04 21:30 | 45.64990 | 12.19931 | 56 ft | 26 kts | 249° |
| 2026-05-04 21:30 | 45.64922 | 12.19679 | 57 ft | 27 kts | 249° |
| 2026-05-04 21:30 | 45.64858 | 12.19436 | 61 ft | 25 kts | 249° |
| 2026-05-04 21:31 | 45.64724 | 12.18924 | 63 ft | 32 kts | 249° |
| 2026-05-04 21:31 | 45.64640 | 12.18611 | 59 ft | 35 kts | 249° |
| 2026-05-04 21:31 | 45.64552 | 12.18280 | 60 ft | 35 kts | 249° |
| 2026-05-04 21:32 | 45.64502 | 12.18083 | 68 ft | 8 kts | 255° |
| 2026-05-04 21:32 | 45.64502 | 12.18015 | 66 ft | 4 kts | 257° |
| 2026-05-04 21:32 | 45.64489 | 12.18009 | 62 ft | 4 kts | 166° |
| 2026-05-04 21:32 | 45.64481 | 12.18047 | 65 ft | 5 kts | 69° |
| 2026-05-04 21:33 | 45.64514 | 12.18145 | 66 ft | 24 kts | 68° |
| 2026-05-04 21:33 | 45.64672 | 12.18733 | 62 ft | 101 kts | 69° |
| 2026-05-04 21:33 | 45.65017 | 12.19966 | 85 ft | 162 kts | 66° |
| 2026-05-04 21:33 | 45.65456 | 12.21487 | 812 ft | 166 kts | 68° |
| 2026-05-04 21:34 | 45.65819 | 12.23128 | 1424 ft | 187 kts | 81° |
| 2026-05-04 21:34 | 45.65860 | 12.25098 | 1886 ft | 210 kts | 103° |
| 2026-05-04 21:34 | 45.65174 | 12.26902 | 2481 ft | 213 kts | 141° |
| 2026-05-04 21:34 | 45.63768 | 12.27619 | 2887 ft | 223 kts | 185° |
| 2026-05-04 21:35 | 45.62351 | 12.26751 | 3490 ft | 228 kts | 224° |
| 2026-05-04 21:35 | 45.61437 | 12.24910 | 4237 ft | 229 kts | 239° |
| 2026-05-04 21:35 | 45.60344 | 12.23272 | 4726 ft | 242 kts | 207° |
| 2026-05-04 21:35 | 45.58640 | 12.22861 | 5043 ft | 261 kts | 171° |
| 2026-05-04 21:36 | 45.56844 | 12.23360 | 5803 ft | 267 kts | 170° |
| 2026-05-04 21:36 | 45.55011 | 12.23765 | 6779 ft | 267 kts | 173° |
| 2026-05-04 21:36 | 45.53163 | 12.24088 | 7673 ft | 268 kts | 174° |
| 2026-05-04 21:36 | 45.51301 | 12.24357 | 8559 ft | 270 kts | 175° |
| 2026-05-04 21:37 | 45.49423 | 12.24588 | 9467 ft | 272 kts | 176° |
| 2026-05-04 21:37 | 45.47530 | 12.24794 | 10322 ft | 274 kts | 177° |
| 2026-05-04 21:37 | 45.45559 | 12.24988 | 10661 ft | 297 kts | 177° |
| 2026-05-04 21:37 | 45.43415 | 12.25183 | 10935 ft | 318 kts | 177° |
| 2026-05-04 21:38 | 45.41181 | 12.25378 | 11595 ft | 325 kts | 177° |
| 2026-05-04 21:38 | 45.38910 | 12.25569 | 12378 ft | 328 kts | 177° |
| 2026-05-04 21:38 | 45.36644 | 12.25756 | 13167 ft | 332 kts | 177° |
| 2026-05-04 21:38 | 45.34327 | 12.25944 | 13935 ft | 336 kts | 177° |
| 2026-05-04 21:39 | 45.31971 | 12.26132 | 14560 ft | 342 kts | 177° |
| 2026-05-04 21:39 | 45.29566 | 12.26324 | 15170 ft | 348 kts | 178° |
| 2026-05-04 21:39 | 45.27123 | 12.26518 | 15801 ft | 353 kts | 178° |
| 2026-05-04 21:39 | 45.24652 | 12.26713 | 16428 ft | 358 kts | 178° |
| 2026-05-04 21:40 | 45.22141 | 12.26912 | 17058 ft | 363 kts | 178° |
| 2026-05-04 21:40 | 45.19631 | 12.27110 | 17664 ft | 368 kts | 178° |
| 2026-05-04 21:40 | 45.17043 | 12.27315 | 18299 ft | 373 kts | 178° |
| 2026-05-04 21:40 | 45.14433 | 12.27521 | 18846 ft | 377 kts | 178° |
| 2026-05-04 21:41 | 45.11795 | 12.27729 | 19468 ft | 379 kts | 178° |
| 2026-05-04 21:41 | 45.09185 | 12.27935 | 20083 ft | 381 kts | 179° |
| 2026-05-04 21:41 | 45.06515 | 12.28117 | 20658 ft | 384 kts | 180° |
| 2026-05-04 21:41 | 45.03831 | 12.28093 | 21230 ft | 386 kts | 183° |
| 2026-05-04 21:42 | 45.01125 | 12.27949 | 21797 ft | 389 kts | 184° |
| 2026-05-04 21:42 | 44.98446 | 12.27771 | 22357 ft | 391 kts | 184° |
| 2026-05-04 21:42 | 44.95716 | 12.27587 | 22908 ft | 394 kts | 184° |
| 2026-05-04 21:42 | 44.92964 | 12.27412 | 23449 ft | 397 kts | 184° |
| 2026-05-04 21:43 | 44.90192 | 12.27247 | 23921 ft | 400 kts | 184° |
| 2026-05-04 21:43 | 44.88345 | 12.27143 | 24211 ft | 401 kts | 184° |
| 2026-05-04 21:43 | 44.85541 | 12.26990 | 24637 ft | 404 kts | 184° |
| 2026-05-04 21:43 | 44.82719 | 12.26841 | 25052 ft | 407 kts | 185° |
| 2026-05-04 21:44 | 44.79869 | 12.26693 | 25461 ft | 410 kts | 185° |
| 2026-05-04 21:44 | 44.77004 | 12.26546 | 25868 ft | 413 kts | 185° |
| 2026-05-04 21:44 | 44.74118 | 12.26398 | 26254 ft | 416 kts | 185° |
| 2026-05-04 21:44 | 44.71212 | 12.26249 | 26647 ft | 419 kts | 185° |
| 2026-05-04 21:45 | 44.68289 | 12.26100 | 27028 ft | 422 kts | 185° |
| 2026-05-04 21:45 | 44.65376 | 12.25951 | 27396 ft | 424 kts | 186° |
| 2026-05-04 21:45 | 44.62407 | 12.25800 | 27767 ft | 427 kts | 186° |
| 2026-05-04 21:45 | 44.59412 | 12.25647 | 28121 ft | 430 kts | 186° |
| 2026-05-04 21:46 | 44.56402 | 12.25494 | 28472 ft | 433 kts | 186° |
| 2026-05-04 21:46 | 44.53417 | 12.25342 | 28815 ft | 436 kts | 186° |
| 2026-05-04 21:46 | 44.50376 | 12.25187 | 29159 ft | 438 kts | 186° |
| 2026-05-04 21:46 | 44.47315 | 12.25032 | 29502 ft | 441 kts | 186° |
| 2026-05-04 21:47 | 44.44232 | 12.24876 | 29841 ft | 443 kts | 186° |
| 2026-05-04 21:47 | 44.41139 | 12.24719 | 30144 ft | 446 kts | 186° |
| 2026-05-04 21:47 | 44.38027 | 12.24562 | 30422 ft | 448 kts | 186° |
| 2026-05-04 21:47 | 44.34936 | 12.24406 | 30717 ft | 449 kts | 186° |
| 2026-05-04 21:48 | 44.31807 | 12.24249 | 31041 ft | 449 kts | 187° |
| 2026-05-04 21:48 | 44.28691 | 12.24094 | 31460 ft | 447 kts | 187° |
| 2026-05-04 21:48 | 44.25586 | 12.23939 | 31888 ft | 444 kts | 187° |
| 2026-05-04 21:48 | 44.22567 | 12.23792 | 32665 ft | 431 kts | 187° |
| 2026-05-04 21:49 | 44.19614 | 12.23651 | 33528 ft | 419 kts | 188° |
| 2026-05-04 21:49 | 44.16679 | 12.23508 | 34149 ft | 412 kts | 188° |
| 2026-05-04 21:49 | 44.13859 | 12.23366 | 34517 ft | 410 kts | 188° |
| 2026-05-04 21:49 | 44.10979 | 12.23216 | 34673 ft | 414 kts | 188° |
| 2026-05-04 21:50 | 44.08083 | 12.23064 | 34801 ft | 417 kts | 188° |
| 2026-05-04 21:50 | 44.05215 | 12.22917 | 35160 ft | 413 kts | 188° |
| 2026-05-04 21:50 | 44.02392 | 12.22783 | 35919 ft | 399 kts | 188° |
| 2026-05-04 21:50 | 43.99614 | 12.22647 | 36218 ft | 400 kts | 188° |
| 2026-05-04 21:51 | 43.96802 | 12.22502 | 36269 ft | 405 kts | 188° |
| 2026-05-04 21:51 | 43.91095 | 12.22207 | 36385 ft | 415 kts | 188° |
| 2026-05-04 21:52 | 43.85280 | 12.21915 | 36493 ft | 425 kts | 188° |
| 2026-05-04 21:52 | 43.79286 | 12.21619 | 36596 ft | 434 kts | 188° |
| 2026-05-04 21:52 | 43.76245 | 12.21470 | 36706 ft | 437 kts | 188° |
| 2026-05-04 21:53 | 43.73229 | 12.21322 | 36905 ft | 438 kts | 187° |
| 2026-05-04 21:53 | 43.70178 | 12.21174 | 37144 ft | 437 kts | 187° |
| 2026-05-04 21:53 | 43.67120 | 12.21022 | 37089 ft | 441 kts | 187° |
| 2026-05-04 21:54 | 43.60974 | 12.21131 | 37115 ft | 447 kts | 175° |
| 2026-05-04 21:54 | 43.54887 | 12.22916 | 37139 ft | 444 kts | 173° |
| 2026-05-04 21:55 | 43.48886 | 12.24738 | 37139 ft | 443 kts | 173° |
| 2026-05-04 21:55 | 43.42862 | 12.26513 | 37132 ft | 442 kts | 173° |
| 2026-05-04 21:56 | 43.36838 | 12.28254 | 37137 ft | 441 kts | 173° |
| 2026-05-04 21:56 | 43.30854 | 12.29974 | 37128 ft | 442 kts | 174° |
| 2026-05-04 21:57 | 43.24819 | 12.31704 | 37117 ft | 441 kts | 174° |
| 2026-05-04 21:57 | 43.18802 | 12.33428 | 37141 ft | 443 kts | 173° |
| 2026-05-04 21:58 | 43.12771 | 12.35151 | 37121 ft | 446 kts | 173° |
| 2026-05-04 21:58 | 43.06677 | 12.36890 | 37131 ft | 448 kts | 173° |
| 2026-05-04 21:59 | 43.00594 | 12.38623 | 37128 ft | 449 kts | 173° |
| 2026-05-04 21:59 | 42.94450 | 12.40370 | 37135 ft | 451 kts | 173° |
| 2026-05-04 22:00 | 42.88298 | 12.42116 | 37134 ft | 452 kts | 173° |
| 2026-05-04 22:00 | 42.82152 | 12.43856 | 37133 ft | 452 kts | 173° |
| 2026-05-04 22:01 | 42.75978 | 12.45600 | 37147 ft | 451 kts | 173° |
| 2026-05-04 22:01 | 42.69825 | 12.47335 | 37153 ft | 451 kts | 173° |
| 2026-05-04 22:02 | 42.63718 | 12.49055 | 37151 ft | 450 kts | 173° |
| 2026-05-04 22:02 | 42.57580 | 12.50779 | 37154 ft | 449 kts | 173° |
| 2026-05-04 22:03 | 42.51463 | 12.52494 | 37153 ft | 448 kts | 173° |
| 2026-05-04 22:03 | 42.45381 | 12.54194 | 37165 ft | 448 kts | 173° |
| 2026-05-04 22:04 | 42.39261 | 12.55903 | 37160 ft | 448 kts | 173° |
| 2026-05-04 22:04 | 42.33132 | 12.57611 | 37161 ft | 448 kts | 173° |
| 2026-05-04 22:05 | 42.27060 | 12.59299 | 37155 ft | 448 kts | 173° |
| 2026-05-04 22:05 | 42.20966 | 12.61224 | 37161 ft | 451 kts | 169° |
| 2026-05-04 22:06 | 42.14899 | 12.63544 | 37155 ft | 452 kts | 168° |
| 2026-05-04 22:06 | 42.08891 | 12.65872 | 37161 ft | 452 kts | 168° |
| 2026-05-04 22:07 | 42.02819 | 12.68178 | 37165 ft | 453 kts | 168° |
| 2026-05-04 22:07 | 41.96899 | 12.70393 | 37159 ft | 454 kts | 169° |
| 2026-05-04 22:08 | 41.90853 | 12.72645 | 37156 ft | 454 kts | 168° |
| 2026-05-04 22:08 | 41.84744 | 12.74916 | 37160 ft | 455 kts | 168° |
| 2026-05-04 22:09 | 41.78628 | 12.77185 | 37153 ft | 455 kts | 168° |
| 2026-05-04 22:09 | 41.72506 | 12.79454 | 37151 ft | 456 kts | 168° |
| 2026-05-04 22:10 | 41.66427 | 12.81702 | 37157 ft | 456 kts | 168° |
| 2026-05-04 22:10 | 41.60295 | 12.83965 | 37153 ft | 456 kts | 168° |
| 2026-05-04 22:11 | 41.54171 | 12.86221 | 37151 ft | 456 kts | 168° |
| 2026-05-04 22:11 | 41.48083 | 12.88459 | 37144 ft | 456 kts | 168° |
| 2026-05-04 22:12 | 41.41961 | 12.90705 | 37143 ft | 455 kts | 168° |
| 2026-05-04 22:12 | 41.35835 | 12.92949 | 37140 ft | 455 kts | 168° |
| 2026-05-04 22:13 | 41.29711 | 12.94782 | 37145 ft | 450 kts | 176° |
| 2026-05-04 22:13 | 41.23565 | 12.95823 | 37127 ft | 439 kts | 178° |
| 2026-05-04 22:14 | 41.17556 | 12.96801 | 37125 ft | 435 kts | 177° |
| 2026-05-04 22:14 | 41.11557 | 12.97831 | 37123 ft | 431 kts | 177° |
| 2026-05-04 22:15 | 41.05655 | 12.98876 | 37123 ft | 428 kts | 177° |
| 2026-05-04 22:15 | 40.99772 | 12.99928 | 37127 ft | 425 kts | 177° |
| 2026-05-04 22:16 | 40.93918 | 13.00973 | 37125 ft | 422 kts | 177° |
| 2026-05-04 22:16 | 40.88115 | 13.02007 | 37124 ft | 419 kts | 177° |
| 2026-05-04 22:17 | 40.82376 | 13.03027 | 37112 ft | 417 kts | 177° |
| 2026-05-04 22:17 | 40.79486 | 13.03538 | 36667 ft | 419 kts | 177° |
| 2026-05-04 22:17 | 40.76589 | 13.04052 | 35906 ft | 419 kts | 177° |
| 2026-05-04 22:17 | 40.73667 | 13.04566 | 35406 ft | 426 kts | 177° |
| 2026-05-04 22:18 | 40.70719 | 13.05087 | 35350 ft | 427 kts | 177° |
| 2026-05-04 22:18 | 40.67796 | 13.05603 | 35208 ft | 430 kts | 177° |
| 2026-05-04 22:18 | 40.64824 | 13.06128 | 35141 ft | 431 kts | 177° |
| 2026-05-04 22:19 | 40.58875 | 13.07180 | 35126 ft | 430 kts | 177° |
| 2026-05-04 22:19 | 40.52942 | 13.08228 | 35120 ft | 429 kts | 177° |
| 2026-05-04 22:20 | 40.47070 | 13.09261 | 35123 ft | 427 kts | 177° |
| 2026-05-04 22:20 | 40.41164 | 13.10297 | 35132 ft | 426 kts | 177° |
| 2026-05-04 22:21 | 40.35332 | 13.11319 | 35126 ft | 425 kts | 177° |
| 2026-05-04 22:21 | 40.29466 | 13.12345 | 35125 ft | 424 kts | 177° |
| 2026-05-04 22:22 | 40.23608 | 13.13367 | 35133 ft | 423 kts | 177° |
| 2026-05-04 22:22 | 40.17803 | 13.14379 | 35139 ft | 422 kts | 177° |
| 2026-05-04 22:23 | 40.11968 | 13.15394 | 35128 ft | 422 kts | 177° |
| 2026-05-04 22:23 | 40.06183 | 13.16399 | 35128 ft | 421 kts | 177° |
| 2026-05-04 22:24 | 40.00361 | 13.17408 | 35135 ft | 421 kts | 177° |
| 2026-05-04 22:24 | 39.94553 | 13.18413 | 35132 ft | 420 kts | 177° |
| 2026-05-04 22:25 | 39.88698 | 13.19422 | 35146 ft | 430 kts | 177° |
| 2026-05-04 22:25 | 39.82723 | 13.20447 | 35146 ft | 442 kts | 177° |
| 2026-05-04 22:26 | 39.76531 | 13.21512 | 35142 ft | 453 kts | 176° |
| 2026-05-04 22:26 | 39.70246 | 13.22594 | 35129 ft | 457 kts | 176° |
| 2026-05-04 22:27 | 39.63915 | 13.23684 | 35126 ft | 459 kts | 176° |
| 2026-05-04 22:27 | 39.57620 | 13.24765 | 35127 ft | 458 kts | 176° |
| 2026-05-04 22:28 | 39.51286 | 13.25849 | 35123 ft | 457 kts | 176° |
| 2026-05-04 22:28 | 39.45028 | 13.26917 | 35126 ft | 455 kts | 176° |
| 2026-05-04 22:29 | 39.38750 | 13.27987 | 35125 ft | 453 kts | 176° |
| 2026-05-04 22:29 | 39.33557 | 13.28870 | 35124 ft | 451 kts | 176° |
| 2026-05-04 22:30 | 39.26326 | 13.30097 | 35125 ft | 450 kts | 176° |
| 2026-05-04 22:30 | 39.21159 | 13.30972 | 35130 ft | 449 kts | 177° |
| 2026-05-04 22:31 | 39.14960 | 13.32020 | 35131 ft | 449 kts | 177° |
| 2026-05-04 22:31 | 39.08745 | 13.33069 | 35135 ft | 449 kts | 177° |
| 2026-05-04 22:32 | 39.02567 | 13.34109 | 35132 ft | 450 kts | 177° |
| 2026-05-04 22:32 | 38.96324 | 13.35159 | 35131 ft | 451 kts | 177° |
| 2026-05-04 22:33 | 38.90120 | 13.36201 | 35126 ft | 452 kts | 177° |
| 2026-05-04 22:33 | 38.83848 | 13.37253 | 35132 ft | 453 kts | 177° |
| 2026-05-04 22:34 | 38.77573 | 13.38303 | 35128 ft | 454 kts | 177° |
| 2026-05-04 22:34 | 38.71332 | 13.39346 | 35130 ft | 455 kts | 177° |
| 2026-05-04 22:35 | 38.65036 | 13.40396 | 35127 ft | 455 kts | 177° |
| 2026-05-04 22:35 | 38.58740 | 13.41444 | 35124 ft | 456 kts | 177° |
| 2026-05-04 22:36 | 38.52469 | 13.42486 | 35129 ft | 456 kts | 177° |
| 2026-05-04 22:36 | 38.46165 | 13.43532 | 35125 ft | 456 kts | 177° |
| 2026-05-04 22:37 | 38.39898 | 13.44570 | 35127 ft | 456 kts | 177° |
| 2026-05-04 22:37 | 38.33591 | 13.45612 | 35131 ft | 455 kts | 177° |
| 2026-05-04 22:38 | 38.27333 | 13.46645 | 35129 ft | 455 kts | 177° |
| 2026-05-04 22:38 | 38.21046 | 13.47681 | 35131 ft | 455 kts | 177° |
| 2026-05-04 22:39 | 38.14790 | 13.48709 | 35135 ft | 455 kts | 177° |
| 2026-05-04 22:39 | 38.08503 | 13.49741 | 34721 ft | 459 kts | 177° |
| 2026-05-04 22:39 | 38.05297 | 13.50263 | 33911 ft | 464 kts | 176° |
| 2026-05-04 22:40 | 38.02107 | 13.50786 | 33209 ft | 462 kts | 176° |
| 2026-05-04 22:40 | 37.98909 | 13.51310 | 32511 ft | 461 kts | 176° |
| 2026-05-04 22:40 | 37.95728 | 13.51832 | 31848 ft | 460 kts | 176° |
| 2026-05-04 22:40 | 37.92600 | 13.52344 | 31244 ft | 458 kts | 176° |
| 2026-05-04 22:41 | 37.89440 | 13.52861 | 30641 ft | 455 kts | 176° |
| 2026-05-04 22:41 | 37.86288 | 13.53375 | 30027 ft | 458 kts | 176° |
| 2026-05-04 22:41 | 37.83103 | 13.53892 | 29339 ft | 464 kts | 176° |
| 2026-05-04 22:41 | 37.79881 | 13.54414 | 28686 ft | 469 kts | 176° |
| 2026-05-04 22:42 | 37.76631 | 13.54942 | 28026 ft | 470 kts | 176° |
| 2026-05-04 22:42 | 37.73396 | 13.55469 | 27383 ft | 467 kts | 176° |
| 2026-05-04 22:42 | 37.70222 | 13.55986 | 26750 ft | 463 kts | 176° |
| 2026-05-04 22:42 | 37.67030 | 13.56506 | 26133 ft | 460 kts | 176° |
| 2026-05-04 22:43 | 37.63863 | 13.57021 | 25542 ft | 457 kts | 176° |
| 2026-05-04 22:43 | 37.60718 | 13.57531 | 24965 ft | 453 kts | 176° |
| 2026-05-04 22:43 | 37.57606 | 13.58034 | 24422 ft | 448 kts | 175° |
| 2026-05-04 22:43 | 37.54523 | 13.58533 | 23912 ft | 445 kts | 175° |
| 2026-05-04 22:44 | 37.51458 | 13.59028 | 23313 ft | 441 kts | 175° |
| 2026-05-04 22:44 | 37.48418 | 13.59519 | 22695 ft | 437 kts | 175° |
| 2026-05-04 22:44 | 37.45441 | 13.59998 | 22116 ft | 434 kts | 175° |
| 2026-05-04 22:44 | 37.42444 | 13.60481 | 21538 ft | 431 kts | 175° |
| 2026-05-04 22:45 | 37.39483 | 13.60958 | 21043 ft | 426 kts | 175° |
| 2026-05-04 22:45 | 37.33645 | 13.61897 | 20249 ft | 416 kts | 175° |
| 2026-05-04 22:45 | 37.30855 | 13.62347 | 20180 ft | 402 kts | 175° |
| 2026-05-04 22:46 | 37.28110 | 13.62788 | 20167 ft | 392 kts | 175° |
| 2026-05-04 22:46 | 37.25437 | 13.63217 | 19993 ft | 383 kts | 175° |
| 2026-05-04 22:46 | 37.22797 | 13.63639 | 19685 ft | 380 kts | 175° |
| 2026-05-04 22:46 | 37.20217 | 13.64051 | 19382 ft | 376 kts | 175° |
| 2026-05-04 22:47 | 37.17620 | 13.64466 | 19072 ft | 373 kts | 175° |
| 2026-05-04 22:47 | 37.15059 | 13.64875 | 18775 ft | 370 kts | 175° |
| 2026-05-04 22:47 | 37.12516 | 13.65359 | 18467 ft | 369 kts | 169° |
| 2026-05-04 22:47 | 37.10076 | 13.66374 | 18129 ft | 369 kts | 159° |
| 2026-05-04 22:48 | 37.07719 | 13.67621 | 17791 ft | 367 kts | 159° |
| 2026-05-04 22:48 | 37.05367 | 13.68863 | 17451 ft | 366 kts | 159° |
| 2026-05-04 22:48 | 37.03021 | 13.70094 | 17104 ft | 364 kts | 159° |
| 2026-05-04 22:48 | 37.00684 | 13.71311 | 16786 ft | 363 kts | 159° |
| 2026-05-04 22:49 | 36.98354 | 13.72516 | 16457 ft | 362 kts | 159° |
| 2026-05-04 22:49 | 36.96028 | 13.73716 | 16135 ft | 361 kts | 159° |
| 2026-05-04 22:49 | 36.93731 | 13.74897 | 15820 ft | 360 kts | 159° |
| 2026-05-04 22:49 | 36.91420 | 13.76083 | 15505 ft | 359 kts | 159° |
| 2026-05-04 22:50 | 36.89105 | 13.77270 | 15190 ft | 358 kts | 159° |
| 2026-05-04 22:50 | 36.86803 | 13.78449 | 14876 ft | 356 kts | 159° |
| 2026-05-04 22:50 | 36.84512 | 13.79622 | 14569 ft | 355 kts | 159° |
| 2026-05-04 22:50 | 36.82223 | 13.80793 | 14265 ft | 354 kts | 159° |
| 2026-05-04 22:51 | 36.79972 | 13.81943 | 13968 ft | 353 kts | 159° |
| 2026-05-04 22:51 | 36.77703 | 13.83102 | 13637 ft | 351 kts | 159° |
| 2026-05-04 22:51 | 36.75444 | 13.84256 | 13319 ft | 347 kts | 159° |
| 2026-05-04 22:51 | 36.73222 | 13.85390 | 13005 ft | 342 kts | 159° |
| 2026-05-04 22:52 | 36.71032 | 13.86507 | 12688 ft | 337 kts | 159° |
| 2026-05-04 22:52 | 36.68874 | 13.87607 | 12387 ft | 334 kts | 159° |
| 2026-05-04 22:52 | 36.66730 | 13.88699 | 12090 ft | 331 kts | 159° |
| 2026-05-04 22:52 | 36.64627 | 13.89769 | 11793 ft | 329 kts | 159° |
| 2026-05-04 22:53 | 36.62513 | 13.90845 | 11499 ft | 327 kts | 159° |
| 2026-05-04 22:53 | 36.60410 | 13.91914 | 11234 ft | 324 kts | 159° |
| 2026-05-04 22:53 | 36.58339 | 13.92967 | 11176 ft | 318 kts | 159° |
| 2026-05-04 22:53 | 36.56275 | 13.94015 | 11175 ft | 323 kts | 159° |
| 2026-05-04 22:54 | 36.54167 | 13.95085 | 11172 ft | 329 kts | 159° |
| 2026-05-04 22:54 | 36.52042 | 13.96162 | 11166 ft | 329 kts | 159° |
| 2026-05-04 22:54 | 36.49971 | 13.97213 | 11090 ft | 322 kts | 159° |
| 2026-05-04 22:54 | 36.47902 | 13.98260 | 10771 ft | 319 kts | 159° |
| 2026-05-04 22:55 | 36.45853 | 13.99296 | 10490 ft | 315 kts | 159° |
| 2026-05-04 22:55 | 36.43833 | 14.00318 | 10203 ft | 312 kts | 159° |
| 2026-05-04 22:55 | 36.41827 | 14.01331 | 9906 ft | 309 kts | 158° |
| 2026-05-04 22:55 | 36.39843 | 14.02333 | 9577 ft | 305 kts | 158° |
| 2026-05-04 22:56 | 36.37886 | 14.03321 | 9289 ft | 303 kts | 159° |
| 2026-05-04 22:56 | 36.35960 | 14.04293 | 8958 ft | 301 kts | 159° |
| 2026-05-04 22:56 | 36.34018 | 14.05272 | 8628 ft | 299 kts | 159° |
| 2026-05-04 22:56 | 36.32096 | 14.06241 | 8304 ft | 297 kts | 159° |
| 2026-05-04 22:57 | 36.30184 | 14.07205 | 7985 ft | 295 kts | 159° |
| 2026-05-04 22:57 | 36.28307 | 14.08150 | 7673 ft | 293 kts | 159° |
| 2026-05-04 22:57 | 36.26399 | 14.09110 | 7376 ft | 290 kts | 159° |
| 2026-05-04 22:57 | 36.24566 | 14.10032 | 7107 ft | 286 kts | 158° |
| 2026-05-04 22:58 | 36.22729 | 14.10956 | 6846 ft | 283 kts | 158° |
| 2026-05-04 22:58 | 36.20913 | 14.11868 | 6574 ft | 279 kts | 158° |
| 2026-05-04 22:58 | 36.19118 | 14.12770 | 6270 ft | 277 kts | 158° |
| 2026-05-04 22:58 | 36.17357 | 14.13654 | 5936 ft | 276 kts | 158° |
| 2026-05-04 22:59 | 36.15583 | 14.14544 | 5631 ft | 274 kts | 158° |
| 2026-05-04 22:59 | 36.13819 | 14.15430 | 5336 ft | 272 kts | 157° |
| 2026-05-04 22:59 | 36.12067 | 14.16308 | 5030 ft | 270 kts | 157° |
| 2026-05-04 22:59 | 36.10339 | 14.17198 | 4723 ft | 267 kts | 152° |
| 2026-05-04 23:00 | 36.08901 | 14.18619 | 4441 ft | 264 kts | 132° |
| 2026-05-04 23:00 | 36.07705 | 14.20274 | 4195 ft | 260 kts | 133° |
| 2026-05-04 23:00 | 36.06468 | 14.21894 | 3954 ft | 257 kts | 134° |
| 2026-05-04 23:00 | 36.05234 | 14.23472 | 3740 ft | 252 kts | 134° |
| 2026-05-04 23:01 | 36.04016 | 14.25012 | 3556 ft | 247 kts | 135° |
| 2026-05-04 23:01 | 36.02829 | 14.26514 | 3387 ft | 242 kts | 135° |
| 2026-05-04 23:01 | 36.01669 | 14.27965 | 3201 ft | 237 kts | 136° |
| 2026-05-04 23:01 | 36.00514 | 14.29399 | 3047 ft | 232 kts | 136° |
| 2026-05-04 23:02 | 35.99387 | 14.30798 | 3045 ft | 229 kts | 136° |
| 2026-05-04 23:02 | 35.98265 | 14.32192 | 2991 ft | 228 kts | 136° |
| 2026-05-04 23:02 | 35.97151 | 14.33574 | 2988 ft | 226 kts | 136° |
| 2026-05-04 23:02 | 35.96063 | 14.34925 | 2977 ft | 219 kts | 136° |
| 2026-05-04 23:03 | 35.95025 | 14.36217 | 2830 ft | 206 kts | 136° |
| 2026-05-04 23:03 | 35.94028 | 14.37454 | 2579 ft | 201 kts | 136° |
| 2026-05-04 23:03 | 35.93050 | 14.38669 | 2320 ft | 197 kts | 136° |
| 2026-05-04 23:03 | 35.92103 | 14.39850 | 2056 ft | 189 kts | 137° |
| 2026-05-04 23:04 | 35.91203 | 14.40963 | 1803 ft | 178 kts | 136° |
| 2026-05-04 23:04 | 35.90358 | 14.42020 | 1569 ft | 168 kts | 136° |
| 2026-05-04 23:04 | 35.89553 | 14.43017 | 1357 ft | 162 kts | 136° |
| 2026-05-04 23:04 | 35.88765 | 14.43995 | 1152 ft | 160 kts | 136° |
| 2026-05-04 23:05 | 35.88014 | 14.44931 | 939 ft | 147 kts | 136° |
| 2026-05-04 23:05 | 35.87302 | 14.45796 | 747 ft | 141 kts | 139° |
| 2026-05-04 23:05 | 35.86601 | 14.46655 | 578 ft | 143 kts | 134° |
| 2026-05-04 23:05 | 35.85916 | 14.47540 | 376 ft | 141 kts | 135° |
| 2026-05-04 23:06 | 35.85251 | 14.48360 | 278 ft | 130 kts | 136° |
| 2026-05-04 23:06 | 35.84677 | 14.49073 | 258 ft | 101 kts | 135° |
| 2026-05-04 23:06 | 35.84305 | 14.49530 | 257 ft | 41 kts | 134° |
| 2026-05-04 23:06 | 35.84171 | 14.49698 | 254 ft | 0 kts | 122° |
| 2026-05-04 23:07 | 35.84179 | 14.49717 | 254 ft | 4 kts | 48° |
| 2026-05-04 23:07 | 35.84211 | 14.49718 | 255 ft | 6 kts | 343° |
| 2026-05-04 23:07 | 35.84255 | 14.49702 | 255 ft | 7 kts | 343° |
| 2026-05-04 23:07 | 35.84310 | 14.49680 | 256 ft | 10 kts | 342° |
| 2026-05-04 23:08 | 35.84385 | 14.49650 | 256 ft | 13 kts | 343° |
| 2026-05-04 23:08 | 35.84482 | 14.49606 | 257 ft | 17 kts | 329° |
| 2026-05-04 23:08 | 35.84535 | 14.49554 | 258 ft | 7 kts | 319° |
| 2026-05-04 23:08 | 35.84580 | 14.49537 | 258 ft | 8 kts | 15° |
| 2026-05-04 23:09 | 35.84636 | 14.49578 | 258 ft | 11 kts | 8° |
| 2026-05-04 23:09 | 35.84718 | 14.49534 | 258 ft | 8 kts | 317° |
| 2026-05-04 23:09 | 35.84772 | 14.49469 | 258 ft | 13 kts | 314° |
| 2026-05-04 23:09 | 35.84831 | 14.49401 | 258 ft | 6 kts | 337° |
| 2026-05-04 23:10 | 35.84879 | 14.49395 | 258 ft | 8 kts | 358° |
| 2026-05-04 23:10 | 35.84906 | 14.49395 | 258 ft | 0 kts | 359° |
| 2026-05-04 23:10 | 35.84907 | 14.49395 | 258 ft | 0 kts | 359° |